Latest Weather Observations for Mount Gellibrand

IDV60801

Issued at 5:02 pm EST Saturday 23 May 2015 (issued every 30 minutes, with the page automatically refreshed every 10 minutes)

About weather observations | Map of weather stations | Latest weather observations for VIC | Other Formats
Station Details ID: 090035 Name: MOUNT GELLIBRAND Lat: -38.23 Lon: 143.79 Height: 261.0 m
Data from the previous 72 hours. | See also: Recent months at Mount Gellibrand
Date/Time
EST
Temp
°C
App
Temp
°C
Dew
Point
Rel
Hum
%
Delta-T
°C
Wind Press
QNH
hPa
Press
MSL
hPa
Rain
since 9 am
mm
Dir
 
Spd
km/h
Gust
km/h
Spd
kts
Gust
kts
23/05:00pm 8.5 4.4 6.0 84 1.1 E 17 19 9 10 1030.9 1031.1 0.0
23/04:30pm 9.3 6.0 6.2 81 1.4 ENE 13 15 7 8 1030.9 1031.1 0.0
23/04:00pm 10.4 7.9 6.5 77 1.8 ENE 9 13 5 7 1030.9 1031.1 0.0
23/03:30pm 10.5 8.3 6.3 75 2.0 ENE 7 13 4 7 1030.9 1031.1 0.0
23/03:00pm 11.4 9.7 6.1 70 2.5 E 4 6 2 3 1031.0 1031.2 0.0
23/02:30pm 10.7 9.1 6.3 74 2.1 E 4 11 2 6 1031.2 1031.4 0.0
23/02:00pm 10.4 8.3 5.6 72 2.2 SSE 6 9 3 5 1031.3 1031.5 0.0
23/01:30pm 10.6 8.5 6.0 73 2.2 S 6 9 3 5 1031.7 1031.9 0.0
23/01:00pm 9.3 7.4 4.9 74 2.0 S 4 7 2 4 1031.8 1032.0 0.0
23/12:30pm 9.7 7.5 5.5 75 1.9 SE 6 9 3 5 1032.1 1032.2 0.0
23/12:00pm 9.2 6.7 5.0 75 1.9 S 7 15 4 8 1032.6 1032.7 0.0
23/11:30am 8.9 6.1 5.1 77 1.7 SSE 9 13 5 7 1032.9 1033.0 0.0
23/11:00am 8.8 6.5 5.0 77 1.7 ESE 6 11 3 6 1033.2 1033.3 0.0
23/10:30am 8.3 5.4 4.7 78 1.6 SSE 9 15 5 8 1033.3 1033.4 0.0
23/10:00am 8.2 5.7 5.0 80 1.4 SE 7 15 4 8 1033.4 1033.5 0.0
23/09:30am 7.9 5.6 4.7 80 1.4 SSE 6 7 3 4 1033.2 1033.3 0.0
23/09:00am 7.5 4.9 4.3 80 1.4 S 7 11 4 6 1033.1 1033.2 0.0
23/08:30am 7.3 4.4 4.4 82 1.3 S 9 13 5 7 1033.1 1033.2 0.0
23/08:00am 7.0 4.4 4.1 82 1.3 S 7 9 4 5 1032.9 1033.0 0.0
23/07:30am 7.1 4.1 4.2 82 1.3 S 9 13 5 7 1032.8 1032.9 0.0
23/07:00am 7.2 4.2 4.2 81 1.3 S 9 15 5 8 1032.5 1032.6 0.0
23/06:30am 7.3 4.4 4.4 82 1.3 S 9 13 5 7 1032.3 1032.4 0.0
23/06:00am 7.4 4.8 4.2 80 1.4 SSW 7 13 4 7 1032.1 1032.2 0.0
23/05:30am 7.5 4.2 4.3 80 1.4 S 11 15 6 8 1031.7 1031.9 0.0
23/05:00am 7.6 4.2 4.2 79 1.5 SSE 11 17 6 9 1031.7 1031.9 0.0
23/04:30am 7.6 4.7 4.4 80 1.4 SSE 9 13 5 7 1031.5 1031.7 0.0
23/04:00am 7.7 4.8 4.7 81 1.3 SSE 9 13 5 7 1031.4 1031.6 0.0
23/03:30am 7.8 4.9 4.6 80 1.4 SSE 9 15 5 8 1031.5 1031.7 0.0
23/03:00am 8.0 5.1 4.6 79 1.5 SSE 9 11 5 6 1031.6 1031.8 0.0
23/02:30am 8.0 5.4 4.4 78 1.6 SSE 7 9 4 5 1031.8 1032.0 0.0
23/02:00am 8.0 5.1 4.4 78 1.6 S 9 15 5 8 1031.8 1032.0 0.0
23/01:30am 8.0 4.7 4.4 78 1.6 S 11 13 6 7 1031.8 1032.0 0.0
23/01:00am 7.9 4.6 4.5 79 1.5 SSE 11 17 6 9 1031.8 1032.0 0.0
23/12:30am 8.3 4.7 4.9 79 1.5 SSE 13 19 7 10 1032.1 1032.2 0.0
23/12:00am 8.7 4.7 4.9 77 1.7 S 15 19 8 10 1032.3 1032.4 0.0
 
Date/Time
EST
Temp
°C
App
Temp
°C
Dew
Point
Rel
Hum
%
Delta-T
°C
Wind Press
QNH
hPa
Press
MSL
hPa
Rain
since 9 am
mm
Dir
 
Spd
km/h
Gust
km/h
Spd
kts
Gust
kts
22/11:30pm 8.6 5.4 5.0 78 1.6 S 11 15 6 8 1032.3 1032.4 0.0
22/11:00pm 8.5 5.0 5.4 81 1.4 S 13 15 7 8 1032.3 1032.4 0.0
22/10:30pm 8.6 5.5 5.4 80 1.5 S 11 13 6 7 1032.4 1032.5 0.0
22/10:00pm 8.9 5.7 5.3 78 1.6 SSW 11 19 6 10 1032.4 1032.5 0.0
22/09:30pm 8.7 5.2 5.3 79 1.6 SSW 13 17 7 9 1032.4 1032.5 0.0
22/09:00pm 9.0 5.4 4.8 75 1.9 S 13 17 7 9 1032.1 1032.2 0.0
22/08:30pm 8.7 5.5 5.3 79 1.6 S 11 13 6 7 1032.2 1032.3 0.0
22/08:00pm 8.7 5.2 5.3 79 1.5 SSW 13 15 7 8 1031.8 1032.0 0.0
22/07:30pm 8.7 6.3 5.4 80 1.5 SSW 7 9 4 5 1031.8 1032.0 0.0
22/07:00pm 8.8 5.7 5.4 79 1.5 S 11 13 6 7 1031.7 1031.9 0.0
22/06:30pm 8.8 6.1 5.4 79 1.6 S 9 13 5 7 1031.5 1031.7 0.0
22/06:00pm 8.8 5.2 4.8 76 1.8 S 13 17 7 9 1031.1 1031.3 0.0
22/05:30pm 9.0 4.9 4.4 73 2.1 S 15 20 8 11 1031.0 1031.2 0.0
22/05:00pm 9.1 4.2 5.3 77 1.7 S 20 24 11 13 1030.8 1031.0 0.0
22/04:30pm 9.5 4.3 5.3 75 1.9 S 22 26 12 14 1030.7 1030.8 0.0
22/04:00pm 9.9 5.8 6.1 77 1.8 S 17 19 9 10 1030.7 1030.8 0.0
22/03:30pm 10.1 5.8 5.3 72 2.2 S 17 20 9 11 1030.6 1030.7 0.0
22/03:00pm 10.2 5.0 5.4 72 2.2 S 22 26 12 14 1030.3 1030.4 0.0
22/02:30pm 10.4 5.8 5.4 71 2.3 S 19 24 10 13 1030.2 1030.3 0.0
22/02:00pm 10.6 6.7 5.4 70 2.4 SSE 15 24 8 13 1030.0 1030.1 0.0
22/01:30pm 10.5 5.8 5.3 70 2.4 S 19 26 10 14 1030.0 1030.1 0.0
22/01:00pm 10.7 6.1 5.5 70 2.4 S 19 24 10 13 1030.0 1030.1 0.0
22/12:30pm 10.6 6.0 5.4 70 2.4 S 19 24 10 13 1030.3 1030.4 0.0
22/12:00pm 10.8 7.0 5.6 70 2.4 SSE 15 20 8 11 1030.3 1030.4 0.0
22/11:30am 10.9 6.2 5.9 71 2.4 S 20 28 11 15 1030.4 1030.5 0.0
22/11:00am 10.6 4.7 6.0 73 2.1 SSW 26 30 14 16 1030.4 1030.5 0.0
22/10:30am 10.5 5.6 7.0 79 1.7 SSW 22 28 12 15 1030.4 1030.5 0.0
22/10:00am 10.3 6.2 8.7 90 0.8 S 20 26 11 14 1030.1 1030.2 0.0
22/09:30am 9.6 6.0 8.5 93 0.5 S 17 20 9 11 1030.2 1030.3 0.0
22/09:00am 9.2 6.4 8.4 95 0.4 S 13 17 7 9 1030.1 1030.2 5.6
22/08:30am 9.0 6.1 8.2 95 0.4 S 13 17 7 9 1030.0 1030.1 5.6
22/08:00am 8.8 4.6 8.2 96 0.3 S 20 30 11 16 1029.7 1029.8 5.6
22/07:30am 8.8 4.3 8.4 97 0.2 S 22 26 12 14 1029.3 1029.4 5.6
22/07:00am 8.7 3.0 8.3 97 0.2 S 28 32 15 17 1028.9 1029.0 5.4
22/06:30am 8.7 3.8 8.3 97 0.2 S 24 28 13 15 1028.5 1028.6 5.4
22/06:00am 8.8 4.6 8.4 97 0.2 S 20 26 11 14 1028.2 1028.3 5.4
22/05:30am 8.8 5.2 8.4 97 0.2 SSW 17 20 9 11 1028.0 1028.1 5.4
22/05:00am 9.1 5.2 8.6 97 0.2 SSW 19 22 10 12 1027.7 1027.9 5.4
22/04:30am 9.3 5.2 8.8 97 0.2 S 20 26 11 14 1027.5 1027.7 5.4
22/04:00am 9.3 5.8 8.8 97 0.2 S 17 22 9 12 1027.5 1027.7 5.4
22/03:30am 9.0 5.8 8.6 97 0.2 S 15 17 8 9 1027.4 1027.5 5.4
22/03:00am 9.2 5.1 8.7 97 0.2 SSE 20 22 11 12 1027.3 1027.4 5.4
22/02:30am 9.4 5.0 8.9 97 0.2 SSE 22 28 12 15 1027.2 1027.3 5.4
22/02:00am 9.6 5.2 9.1 97 0.2 SSE 22 24 12 13 1027.1 1027.2 5.4
22/01:30am 9.8 6.1 9.3 97 0.3 S 19 20 10 11 1027.0 1027.1 5.4
22/01:00am 9.8 6.1 9.3 97 0.2 S 19 22 10 12 1027.0 1027.1 4.8
22/12:30am 9.8 6.1 9.3 97 0.3 S 19 22 10 12 1027.0 1027.1 4.6
22/12:00am 9.8 6.4 9.3 97 0.2 S 17 19 9 10 1026.9 1027.0 4.0
 
Date/Time
EST
Temp
°C
App
Temp
°C
Dew
Point
Rel
Hum
%
Delta-T
°C
Wind Press
QNH
hPa
Press
MSL
hPa
Rain
since 9 am
mm
Dir
 
Spd
km/h
Gust
km/h
Spd
kts
Gust
kts
21/11:30pm 9.8 6.8 9.2 96 0.3 S 15 20 8 11 1026.8 1026.9 2.4
21/11:00pm 9.8 6.0 9.2 96 0.3 S 19 22 10 12 1026.7 1026.8 2.4
21/10:30pm 9.9 6.2 9.3 96 0.3 S 19 22 10 12 1026.8 1026.9 0.8
21/10:00pm 9.6 4.8 8.8 95 0.4 S 24 28 13 15 1026.5 1026.6 0.8
21/09:30pm 9.4 4.5 8.5 94 0.4 S 24 30 13 16 1026.3 1026.4 0.0
21/09:00pm 9.4 4.3 7.8 90 0.8 S 24 30 13 16 1026.1 1026.2 0.0
21/08:30pm 9.5 4.8 7.6 88 0.9 SSW 22 26 12 14 1025.8 1025.9 0.0
21/08:00pm 9.7 4.5 7.3 85 1.1 SSW 24 28 13 15 1025.7 1025.8 0.0
21/07:30pm 9.9 4.7 7.3 84 1.3 SSW 24 28 13 15 1025.6 1025.7 0.0
21/07:00pm 9.9 5.0 7.0 82 1.4 SSW 22 26 12 14 1025.4 1025.5 0.0
21/06:30pm 10.0 5.1 6.9 81 1.5 SSW 22 26 12 14 1025.1 1025.2 0.0
21/06:00pm 10.1 5.6 7.0 81 1.5 SSW 20 24 11 13 1024.8 1024.9 0.0
21/05:30pm 10.4 5.5 6.9 79 1.7 SSW 22 28 12 15 1024.5 1024.6 0.0
21/05:00pm 10.4 5.5 6.9 79 1.7 S 22 28 12 15 1024.5 1024.6 0.0
21/04:30pm 10.7 6.1 6.6 76 2.0 SSE 20 26 11 14 1024.4 1024.5 0.0
21/04:00pm 11.2 6.2 6.3 72 2.3 S 22 32 12 17 1024.1 1024.1 0.0
21/03:30pm 11.2 6.2 6.3 72 2.3 S 22 28 12 15 1023.9 1023.9 0.0
21/03:00pm 11.7 7.0 6.0 68 2.7 S 20 30 11 16 1023.6 1023.7 0.0
21/02:30pm 11.3 7.2 8.0 80 1.6 S 19 28 10 15 1023.5 1023.6 0.0
21/02:00pm 11.1 7.8 8.1 82 1.5 S 15 19 8 10 1023.5 1023.6 0.0
21/01:30pm 11.6 7.7 7.1 74 2.2 S 17 20 9 11 1023.5 1023.6 0.0
21/01:00pm 11.1 7.2 7.0 76 2.0 S 17 20 9 11 1023.7 1023.8 0.0
21/12:30pm 10.6 6.2 7.3 80 1.6 S 20 26 11 14 1024.0 1024.0 0.0
21/12:00pm 11.0 8.0 7.5 79 1.7 SSW 13 20 7 11 1024.3 1024.3 0.0
21/11:30am 10.9 7.7 6.8 76 2.0 SSW 13 17 7 9 1024.5 1024.6 0.0
21/11:00am 10.6 7.6 7.5 81 1.5 SSW 13 17 7 9 1024.6 1024.7 0.0
21/10:30am 9.8 6.3 7.2 84 1.2 SW 15 19 8 10 1024.5 1024.6 0.0
21/10:00am 9.4 6.3 7.2 86 1.0 SSW 13 17 7 9 1024.4 1024.5 0.0
21/09:30am 8.9 5.7 6.7 86 1.0 SW 13 17 7 9 1024.1 1024.1 0.0
21/09:00am 8.4 5.5 6.5 88 0.9 SW 11 13 6 7 1023.7 1023.8 0.6
21/08:30am 8.1 4.7 5.9 86 1.0 SW 13 17 7 9 1023.5 1023.6 0.6
21/08:00am 7.8 3.9 5.4 85 1.1 WSW 15 17 8 9 1023.1 1023.2 0.6
21/07:30am 7.7 3.8 5.5 86 1.0 WSW 15 17 8 9 1022.8 1022.9 0.6
21/07:00am 7.8 4.0 5.6 86 1.0 WSW 15 17 8 9 1022.5 1022.6 0.6
21/06:30am 7.5 3.7 5.6 88 0.9 WSW 15 15 8 8 1022.2 1022.3 0.6
21/06:00am 7.6 3.8 5.7 88 0.9 SW 15 20 8 11 1021.9 1022.0 0.6
21/05:30am 7.6 3.4 5.7 88 0.9 WSW 17 19 9 10 1021.6 1021.7 0.6
21/05:00am 7.4 4.4 5.9 90 0.7 W 11 15 6 8 1021.4 1021.5 0.6
21/04:30am 7.4 4.0 6.0 91 0.6 WSW 13 15 7 8 1021.2 1021.3 0.6
21/04:00am 7.6 3.8 5.9 89 0.8 SW 15 17 8 9 1021.0 1021.0 0.6
21/03:30am 7.5 3.8 6.1 91 0.6 WSW 15 17 8 9 1021.0 1021.0 0.6
21/03:00am 7.5 3.8 6.1 91 0.6 WSW 15 17 8 9 1021.0 1021.0 0.6
21/02:30am 7.5 3.8 6.1 91 0.6 SW 15 17 8 9 1020.9 1020.9 0.6
21/02:00am 7.6 3.4 5.9 89 0.8 SW 17 22 9 12 1020.8 1020.8 0.6
21/01:30am 7.7 3.0 6.2 90 0.7 SW 20 22 11 12 1020.6 1020.6 0.6
21/01:00am 7.7 2.6 6.2 90 0.7 SSW 22 26 12 14 1020.5 1020.5 0.6
21/12:30am 7.8 2.4 6.4 91 0.7 SSW 24 32 13 17 1020.3 1020.3 0.6
21/12:00am 8.0 2.7 6.9 93 0.5 SSW 24 30 13 16 1020.1 1020.1 0.6
 
Date/Time
EST
Temp
°C
App
Temp
°C
Dew
Point
Rel
Hum
%
Delta-T
°C
Wind Press
QNH
hPa
Press
MSL
hPa
Rain
since 9 am
mm
Dir
 
Spd
km/h
Gust
km/h
Spd
kts
Gust
kts
20/11:30pm 8.0 2.4 7.2 95 0.4 SW 26 32 14 17 1019.9 1019.9 0.4
20/11:00pm 8.1 2.5 7.3 95 0.4 SW 26 30 14 16 1019.6 1019.7 0.4
20/10:30pm 8.2 3.3 7.0 92 0.6 SW 22 26 12 14 1019.6 1019.7 0.4
20/10:00pm 8.4 3.1 6.9 90 0.7 SW 24 28 13 15 1019.3 1019.4 0.4
20/09:30pm 8.8 3.6 7.4 91 0.7 SW 24 32 13 17 1018.9 1019.0 0.4
20/09:00pm 8.9 3.8 7.5 91 0.7 SW 24 28 13 15 1018.7 1018.8 0.4
20/08:30pm 8.8 3.6 7.3 90 0.7 SW 24 30 13 16 1018.2 1018.3 0.4
20/08:00pm 9.1 2.8 7.5 90 0.8 SW 30 35 16 19 1017.8 1017.9 0.4
20/07:30pm 9.3 3.1 7.7 90 0.8 SW 30 35 16 19 1017.4 1017.4 0.4
20/07:00pm 9.5 2.8 8.1 91 0.7 SW 33 43 18 23 1016.7 1016.7 0.4
20/06:30pm 9.7 2.7 8.3 91 0.7 SW 35 43 19 23 1016.0 1016.0 0.4
20/06:00pm 10.1 2.9 9.2 94 0.5 SW 37 48 20 26 1015.0 1015.1 0.4
20/05:30pm 10.0 4.6 9.4 96 0.3 SW 28 35 15 19 1014.4 1014.4 0.4

Other Formats:

Comma delimited format used in spreadsheet applications
http://www.bom.gov.au/fwo/IDV60801/IDV60801.95845.axf

JavaScript Object Notation format (JSON) in row-major order
http://www.bom.gov.au/fwo/IDV60801/IDV60801.95845.json